createdAt,value
2018-01-28T00:01:15.975Z,32.00
2018-01-28T00:03:43.845Z,40.60
2018-01-28T00:06:11.766Z,45.97
2018-01-28T00:08:39.615Z,38.67
2018-01-28T00:11:07.466Z,43.90
2018-01-28T00:13:35.420Z,40.73
2018-01-28T00:16:04.172Z,40.70
2018-01-28T00:18:32.082Z,39.03
2018-01-28T00:21:00.259Z,45.50
2018-01-28T00:23:28.109Z,39.97
2018-01-28T00:25:55.990Z,41.37
2018-01-28T00:28:23.903Z,39.20
2018-01-28T00:30:51.766Z,36.90
2018-01-28T00:33:19.631Z,35.77
2018-01-28T00:35:47.530Z,31.83
2018-01-28T00:38:15.378Z,29.97
2018-01-28T00:40:43.252Z,34.10
2018-01-28T00:43:12.031Z,33.17
2018-01-28T00:45:39.875Z,34.00
2018-01-28T00:48:07.745Z,34.30
2018-01-28T00:50:35.678Z,33.63
2018-01-28T00:53:03.535Z,32.60
2018-01-28T00:55:31.389Z,31.53
2018-01-28T00:57:59.301Z,27.73
2018-01-28T01:00:27.169Z,30.27
2018-01-28T01:02:55.047Z,30.10
2018-01-28T01:05:22.955Z,29.33
2018-01-28T01:07:50.801Z,32.27
2018-01-28T01:10:18.674Z,33.03
2018-01-28T01:12:46.878Z,31.27
2018-01-28T01:15:14.728Z,30.30
2018-01-28T01:17:42.738Z,33.97
2018-01-28T01:20:10.655Z,32.70
2018-01-28T01:22:38.516Z,28.53
2018-01-28T01:25:06.388Z,31.23
2018-01-28T01:27:34.334Z,30.50
2018-01-28T01:30:02.226Z,34.90
2018-01-28T01:32:30.080Z,38.37
2018-01-28T01:34:57.984Z,35.33
2018-01-28T01:37:25.870Z,38.10
2018-01-28T01:39:53.758Z,38.27
2018-01-28T01:42:21.676Z,37.47
2018-01-28T01:44:49.534Z,35.50
2018-01-28T01:47:17.391Z,35.70
2018-01-28T01:49:45.329Z,39.63
2018-01-28T01:52:13.171Z,31.77
2018-01-28T01:54:41.025Z,36.50
2018-01-28T01:57:08.907Z,30.70
2018-01-28T01:59:36.869Z,25.50
2018-01-28T02:02:04.739Z,27.17
2018-01-28T02:04:32.876Z,24.53
2018-01-28T02:07:00.727Z,26.07
2018-01-28T02:09:28.576Z,27.87
2018-01-28T02:11:56.515Z,25.17
2018-01-28T02:14:24.379Z,24.00
2018-01-28T02:16:52.296Z,23.80
2018-01-28T02:19:20.326Z,24.47
2018-01-28T02:21:48.184Z,24.97
2018-01-28T02:24:16.038Z,23.20
2018-01-28T02:26:43.952Z,23.30
2018-01-28T02:29:11.806Z,21.97
2018-01-28T02:31:39.637Z,23.77
2018-01-28T02:34:07.546Z,24.90
2018-01-28T02:36:35.423Z,21.30
2018-01-28T02:39:03.340Z,24.10
2018-01-28T02:41:31.643Z,24.87
2018-01-28T02:43:59.503Z,25.63
2018-01-28T02:46:27.387Z,20.33
2018-01-28T02:48:55.290Z,21.07
2018-01-28T02:51:23.149Z,25.83
2018-01-28T02:53:51.022Z,25.30
2018-01-28T02:56:18.962Z,24.23
2018-01-28T02:58:46.811Z,29.10
2018-01-28T03:01:14.690Z,25.50
2018-01-28T03:03:42.671Z,23.63
2018-01-28T03:06:10.566Z,25.57
2018-01-28T03:08:38.438Z,23.30
2018-01-28T03:11:06.364Z,26.27
2018-01-28T03:13:34.219Z,27.07
2018-01-28T03:16:02.099Z,28.60
2018-01-28T03:18:30.275Z,31.87
2018-01-28T03:20:58.650Z,31.17
2018-01-28T03:23:27.350Z,41.70
2018-01-28T03:25:55.314Z,43.33
2018-01-28T03:28:23.858Z,33.10
2018-01-28T03:30:52.190Z,36.87
2018-01-28T03:33:20.187Z,39.17
2018-01-28T03:35:48.068Z,37.00
2018-01-28T03:38:15.990Z,38.53
2018-01-28T03:40:43.909Z,40.40
2018-01-28T03:43:11.781Z,37.70
2018-01-28T03:45:39.647Z,34.73
2018-01-28T03:48:07.591Z,35.83
2018-01-28T03:50:35.454Z,33.17
2018-01-28T03:53:03.322Z,33.43
2018-01-28T03:55:31.526Z,34.90
2018-01-28T03:57:59.396Z,36.23
2018-01-28T04:00:27.254Z,34.97
2018-01-28T04:02:55.191Z,33.43
2018-01-28T04:05:23.080Z,39.27
2018-01-28T04:07:50.956Z,35.27
2018-01-28T04:10:18.851Z,39.77
2018-01-28T04:12:46.746Z,39.87
2018-01-28T04:15:14.697Z,36.27
2018-01-28T04:17:42.635Z,40.60
2018-01-28T04:20:10.506Z,36.87
2018-01-28T04:22:38.690Z,40.00
2018-01-28T04:25:06.642Z,41.77
2018-01-28T04:27:34.523Z,39.57
2018-01-28T04:30:02.387Z,40.47
2018-01-28T04:32:30.295Z,40.73
2018-01-28T04:34:58.172Z,37.80
2018-01-28T04:37:26.049Z,45.73
2018-01-28T04:39:54.364Z,38.93
2018-01-28T04:42:22.295Z,41.60
2018-01-28T04:44:50.151Z,37.53
2018-01-28T04:47:18.084Z,42.60
2018-01-28T04:49:45.995Z,42.53
2018-01-28T04:52:13.867Z,38.57
2018-01-28T04:54:41.814Z,37.93
2018-01-28T04:57:09.706Z,40.07
2018-01-28T04:59:38.390Z,38.50
2018-01-28T05:02:07.329Z,35.43
2018-01-28T05:04:35.248Z,36.33
2018-01-28T05:07:03.168Z,36.50
2018-01-28T05:09:31.140Z,36.83
2018-01-28T05:11:59.042Z,34.30
2018-01-28T05:14:26.923Z,35.80
2018-01-28T05:16:55.039Z,38.87
2018-01-28T05:19:22.958Z,44.30
2018-01-28T05:21:50.927Z,40.47
2018-01-28T05:24:21.855Z,41.50
2018-01-28T05:26:49.779Z,40.80
2018-01-28T05:29:17.635Z,40.30
2018-01-28T05:31:45.567Z,41.63
2018-01-28T05:34:13.418Z,43.57
2018-01-28T05:36:41.282Z,42.90
2018-01-28T05:39:09.212Z,44.60
2018-01-28T05:41:37.067Z,48.67
2018-01-28T05:44:04.938Z,43.33
2018-01-28T05:46:32.882Z,40.80
2018-01-28T05:49:00.737Z,42.87
2018-01-28T05:51:28.631Z,41.53
2018-01-28T05:53:56.554Z,39.90
2018-01-28T05:56:24.425Z,42.40
2018-01-28T05:58:52.278Z,38.97
2018-01-28T06:01:20.181Z,37.27
2018-01-28T06:03:48.046Z,35.67
2018-01-28T06:06:15.904Z,32.50
2018-01-28T06:08:43.887Z,34.60
2018-01-28T06:11:11.775Z,31.23
2018-01-28T06:13:39.698Z,31.83
2018-01-28T06:16:07.587Z,32.97
2018-01-28T06:18:35.503Z,35.23
2018-01-28T06:21:03.378Z,33.93
2018-01-28T06:23:31.476Z,32.63
2018-01-28T06:25:59.459Z,36.03
2018-01-28T06:28:27.336Z,35.90
2018-01-28T06:30:55.230Z,32.60
2018-01-28T06:33:23.150Z,35.73
2018-01-28T06:35:51.024Z,30.37
2018-01-28T06:38:19.914Z,31.03
2018-01-28T06:40:47.766Z,37.17
2018-01-28T06:43:15.643Z,40.00
2018-01-28T06:45:43.574Z,40.47
2018-01-28T06:48:11.430Z,52.30
2018-01-28T06:50:39.292Z,40.73
2018-01-28T06:53:07.182Z,39.90
2018-01-28T06:55:35.032Z,41.57
2018-01-28T06:58:02.876Z,39.50
2018-01-28T07:00:31.012Z,44.30
2018-01-28T07:02:58.872Z,40.47
2018-01-28T07:05:26.743Z,39.47
2018-01-28T07:07:54.671Z,37.80
2018-01-28T07:10:22.521Z,42.67
2018-01-28T07:12:50.553Z,39.30
2018-01-28T07:15:18.494Z,41.10
2018-01-28T07:17:46.350Z,41.00
2018-01-28T07:20:14.291Z,40.63
2018-01-28T07:22:42.421Z,46.17
2018-01-28T07:25:10.267Z,44.27
2018-01-28T07:27:38.237Z,42.90
2018-01-28T07:30:06.551Z,38.50
2018-01-28T07:32:34.397Z,38.37
2018-01-28T07:35:02.601Z,46.97
2018-01-28T07:37:30.540Z,43.03
2018-01-28T07:39:58.379Z,42.87
2018-01-28T07:42:26.239Z,48.70
2018-01-28T07:44:54.366Z,35.60
2018-01-28T07:47:22.227Z,32.80
2018-01-28T07:49:50.087Z,37.17
2018-01-28T07:52:18.285Z,35.00
2018-01-28T07:54:46.191Z,36.50
2018-01-28T07:57:14.107Z,33.57
2018-01-28T07:59:42.049Z,33.90
2018-01-28T08:02:09.979Z,33.33
2018-01-28T08:04:37.894Z,38.90
2018-01-28T08:07:05.854Z,34.73
2018-01-28T08:09:33.786Z,36.50
2018-01-28T08:12:07.132Z,32.80
2018-01-28T08:14:36.928Z,35.20
2018-01-28T08:17:05.668Z,36.80
2018-01-28T08:19:34.093Z,30.77
2018-01-28T08:22:02.006Z,33.80
2018-01-28T08:24:29.923Z,29.47
2018-01-28T08:26:58.702Z,33.30
2018-01-28T08:29:28.299Z,36.80
2018-01-28T08:31:56.144Z,38.27
2018-01-28T08:34:24.091Z,36.60
2018-01-28T08:36:51.975Z,39.67
2018-01-28T08:39:20.360Z,39.63
2018-01-28T08:41:48.275Z,39.10
2018-01-28T08:44:16.998Z,37.03
2018-01-28T08:46:44.906Z,40.67
2018-01-28T08:49:12.815Z,55.77
2018-01-28T08:51:40.655Z,58.70
2018-01-28T08:54:08.570Z,47.40
2018-01-28T08:56:36.479Z,41.13
2018-01-28T08:59:04.325Z,41.07
2018-01-28T09:01:32.166Z,35.17
2018-01-28T09:04:00.053Z,36.40
2018-01-28T09:06:28.032Z,30.90
2018-01-28T09:08:55.933Z,28.10
2018-01-28T09:11:23.839Z,26.03
2018-01-28T09:13:51.725Z,28.53
2018-01-28T09:16:19.604Z,23.40
2018-01-28T09:18:47.535Z,30.70
2018-01-28T09:21:15.447Z,27.90
2018-01-28T09:23:43.315Z,23.50
2018-01-28T09:26:11.487Z,24.73
2018-01-28T09:28:39.352Z,26.37
2018-01-28T09:31:07.773Z,22.43
2018-01-28T09:33:35.755Z,25.53
2018-01-28T09:36:03.623Z,25.60
2018-01-28T09:38:31.522Z,24.20
2018-01-28T09:40:59.518Z,22.60
2018-01-28T09:43:27.383Z,23.07
2018-01-28T09:45:55.306Z,23.20
2018-01-28T09:48:23.219Z,22.90
2018-01-28T09:50:51.066Z,25.77
2018-01-28T09:53:18.934Z,23.20
2018-01-28T09:55:46.857Z,25.80
2018-01-28T09:58:14.711Z,27.63
2018-01-28T10:00:42.835Z,28.23
2018-01-28T10:03:11.731Z,30.33
2018-01-28T10:05:39.598Z,31.67
2018-01-28T10:08:07.438Z,33.30
2018-01-28T10:10:35.399Z,35.67
2018-01-28T10:13:03.726Z,37.57
2018-01-28T10:15:31.588Z,32.07
2018-01-28T10:17:59.500Z,45.33
2018-01-28T10:20:27.371Z,31.97
2018-01-28T10:22:55.252Z,28.87
2018-01-28T10:25:23.166Z,33.30
2018-01-28T10:27:51.053Z,31.63
2018-01-28T10:30:18.903Z,30.80
2018-01-28T10:32:46.908Z,33.87
2018-01-28T10:35:14.767Z,29.93
2018-01-28T10:37:42.622Z,34.17
2018-01-28T10:40:10.574Z,30.87
2018-01-28T10:42:38.479Z,35.57
2018-01-28T10:45:06.430Z,41.47
2018-01-28T10:47:34.671Z,30.00
2018-01-28T10:50:02.522Z,35.63
2018-01-28T10:52:30.405Z,29.10
2018-01-28T10:54:58.322Z,25.00
2018-01-28T10:57:26.186Z,27.43
2018-01-28T10:59:54.055Z,26.13
2018-01-28T11:02:22.866Z,33.10
2018-01-28T11:04:50.734Z,30.13
2018-01-28T11:07:18.607Z,27.10
2018-01-28T11:09:46.538Z,28.37
2018-01-28T11:12:14.403Z,25.37
2018-01-28T11:14:42.266Z,28.23
2018-01-28T11:17:10.201Z,31.07
2018-01-28T11:19:38.049Z,76.47
2018-01-28T11:22:05.971Z,27.00
2018-01-28T11:24:34.163Z,25.20
2018-01-28T11:27:02.034Z,28.90
2018-01-28T11:29:29.892Z,33.40
2018-01-28T11:31:57.815Z,29.33
2018-01-28T11:34:25.804Z,29.00
2018-01-28T11:36:53.674Z,30.73
2018-01-28T11:39:21.592Z,32.93
2018-01-28T11:41:49.434Z,28.70
2018-01-28T11:44:17.299Z,30.80
2018-01-28T11:46:45.276Z,31.97
2018-01-28T11:49:13.155Z,32.77
2018-01-28T11:51:41.033Z,33.40
2018-01-28T11:54:08.964Z,35.27
2018-01-28T11:56:36.944Z,33.57
2018-01-28T11:59:04.827Z,32.77
2018-01-28T12:01:32.999Z,32.47
2018-01-28T12:04:00.903Z,35.23
2018-01-28T12:06:28.769Z,33.70
2018-01-28T12:08:56.685Z,33.90
2018-01-28T12:11:24.580Z,31.90
2018-01-28T12:13:52.457Z,33.93
2018-01-28T12:16:20.360Z,33.47
2018-01-28T12:18:48.239Z,34.60
2018-01-28T12:21:16.101Z,33.63
2018-01-28T12:23:44.034Z,31.67
2018-01-28T12:26:15.167Z,32.90
2018-01-28T12:31:29.837Z,33.30
2018-01-28T12:33:57.922Z,32.67
2018-01-28T12:36:34.655Z,33.30
2018-01-28T12:39:20.084Z,47.73
2018-01-28T12:41:52.772Z,41.20
2018-01-28T12:47:05.363Z,37.23
2018-01-28T12:49:39.452Z,34.63
2018-01-28T12:52:21.968Z,43.53
2018-01-28T12:54:50.159Z,36.13
2018-01-28T12:57:19.044Z,34.07
2018-01-28T12:59:46.915Z,34.40
2018-01-28T13:02:15.083Z,33.30
2018-01-28T13:04:42.986Z,32.67
2018-01-28T13:07:10.916Z,32.70
2018-01-28T13:09:38.825Z,32.47
2018-01-28T13:12:06.720Z,32.77
2018-01-28T13:14:34.592Z,32.53
2018-01-28T13:17:02.549Z,35.63
2018-01-28T13:19:30.415Z,35.03
2018-01-28T13:21:58.292Z,33.40
2018-01-28T13:24:26.219Z,33.73
2018-01-28T13:26:54.149Z,35.47
2018-01-28T13:29:22.052Z,35.33
2018-01-28T13:31:50.012Z,40.00
2018-01-28T13:34:17.864Z,37.50
2018-01-28T13:36:46.752Z,39.23
2018-01-28T13:39:16.771Z,39.53
2018-01-28T13:41:44.622Z,37.00
2018-01-28T13:44:12.523Z,38.93
2018-01-28T13:46:40.454Z,39.93
2018-01-28T13:49:08.309Z,34.93
2018-01-28T13:51:36.154Z,35.30
2018-01-28T13:54:04.287Z,33.03
2018-01-28T13:56:32.245Z,36.73
2018-01-28T13:59:00.175Z,35.90
2018-01-28T14:01:28.100Z,36.00
2018-01-28T14:03:55.959Z,33.90
2018-01-28T14:06:23.803Z,37.80
2018-01-28T14:08:51.726Z,34.90
2018-01-28T14:11:19.646Z,39.37
2018-01-28T14:13:47.526Z,42.20
2018-01-28T14:16:15.443Z,41.03
2018-01-28T14:18:43.399Z,44.67
2018-01-28T14:21:11.255Z,39.73
2018-01-28T14:23:39.146Z,37.80
2018-01-28T14:26:07.017Z,37.40
2018-01-28T14:28:34.915Z,46.37
2018-01-28T14:31:03.635Z,49.70
2018-01-28T14:33:31.523Z,65.23
2018-01-28T14:35:59.394Z,62.83
2018-01-28T14:38:27.376Z,58.23
2018-01-28T14:40:55.241Z,58.07
2018-01-28T14:43:23.140Z,55.63
2018-01-28T14:45:51.096Z,45.40
2018-01-28T14:48:20.727Z,51.97
2018-01-28T14:50:49.624Z,42.43
2018-01-28T14:53:17.526Z,70.10
2018-01-28T14:55:45.390Z,74.23
2018-01-28T14:58:13.246Z,80.50
2018-01-28T15:00:41.563Z,109.73
2018-01-28T15:03:09.434Z,92.13
2018-01-28T15:05:37.270Z,71.23
2018-01-28T15:08:05.204Z,60.03
2018-01-28T15:10:33.111Z,59.27
2018-01-28T15:13:00.977Z,56.70
2018-01-28T15:15:28.904Z,56.63
2018-01-28T15:17:56.758Z,45.03
2018-01-28T15:20:24.646Z,48.83
2018-01-28T15:22:52.544Z,45.30
2018-01-28T15:25:21.334Z,47.50
2018-01-28T15:27:49.194Z,44.73
2018-01-28T15:30:17.456Z,43.23
2018-01-28T15:32:45.302Z,55.10
2018-01-28T15:35:13.151Z,46.00
2018-01-28T15:37:41.063Z,47.80
2018-01-28T15:40:09.078Z,46.80
2018-01-28T15:42:36.982Z,46.57
2018-01-28T15:45:04.986Z,46.67
2018-01-28T15:47:32.854Z,49.20
2018-01-28T15:50:00.795Z,47.87
2018-01-28T15:52:28.780Z,50.57
2018-01-28T15:54:56.667Z,59.63
2018-01-28T15:57:24.531Z,46.90
2018-01-28T15:59:52.463Z,49.87
2018-01-28T16:02:20.348Z,48.50
2018-01-28T16:04:48.249Z,52.53
2018-01-28T16:07:16.170Z,45.40
2018-01-28T16:09:44.022Z,45.70
2018-01-28T16:12:11.869Z,61.33
2018-01-28T16:14:39.786Z,48.77
2018-01-28T16:17:08.132Z,46.83
2018-01-28T16:19:35.988Z,47.30
2018-01-28T16:22:03.929Z,49.57
2018-01-28T16:24:31.770Z,48.93
2018-01-28T16:26:59.612Z,55.53
2018-01-28T16:29:27.567Z,54.07
2018-01-28T16:31:55.418Z,52.83
2018-01-28T16:34:23.270Z,55.27
2018-01-28T16:36:51.171Z,60.90
2018-01-28T16:39:19.028Z,59.63
2018-01-28T16:41:46.946Z,63.67
2018-01-28T16:44:14.930Z,57.10
2018-01-28T16:46:42.810Z,113.07
2018-01-28T16:49:11.947Z,160.47
2018-01-28T16:51:39.839Z,79.13
2018-01-28T16:54:07.694Z,61.43
2018-01-28T16:56:35.615Z,71.83
2018-01-28T16:59:03.526Z,75.00
2018-01-28T17:01:31.368Z,68.43
2018-01-28T17:03:59.252Z,79.60
2018-01-28T17:06:27.135Z,70.57
2018-01-28T17:08:54.994Z,67.30
2018-01-28T17:11:22.858Z,66.07
2018-01-28T17:13:50.871Z,63.33
2018-01-28T17:16:18.749Z,64.30
2018-01-28T17:18:46.609Z,66.83
2018-01-28T17:21:14.527Z,62.23
2018-01-28T17:23:42.557Z,72.27
2018-01-28T17:26:10.454Z,62.07
2018-01-28T17:28:38.671Z,64.10
2018-01-28T17:31:06.518Z,62.07
2018-01-28T17:33:34.378Z,59.97
2018-01-28T17:36:02.311Z,59.27
2018-01-28T17:38:30.171Z,51.93
2018-01-28T17:40:58.151Z,47.37
2018-01-28T17:43:26.167Z,54.60
2018-01-28T17:45:54.043Z,50.73
2018-01-28T17:48:21.915Z,50.10
2018-01-28T17:50:49.863Z,53.33
2018-01-28T17:53:17.706Z,53.67
2018-01-28T17:55:45.554Z,49.30
2018-01-28T17:58:13.470Z,51.53
2018-01-28T18:00:41.343Z,118.87
2018-01-28T18:03:09.199Z,48.70
2018-01-28T18:05:37.102Z,50.37
2018-01-28T18:08:04.979Z,47.40
2018-01-28T18:10:32.820Z,55.13
2018-01-28T18:13:00.718Z,56.83
2018-01-28T18:15:28.614Z,50.20
2018-01-28T18:17:56.458Z,50.47
2018-01-28T18:20:24.366Z,49.00
2018-01-28T18:22:52.227Z,57.57
2018-01-28T18:25:20.071Z,56.43
2018-01-28T18:27:47.979Z,56.90
2018-01-28T18:30:15.828Z,55.47
2018-01-28T18:32:43.679Z,55.90
2018-01-28T18:35:11.627Z,55.33
2018-01-28T18:37:39.495Z,58.83
2018-01-28T18:40:07.379Z,58.63
2018-01-28T18:42:35.315Z,53.70
2018-01-28T18:45:03.812Z,56.67
2018-01-28T18:47:31.731Z,54.83
2018-01-28T18:49:59.650Z,55.13
2018-01-28T18:52:27.513Z,51.20
2018-01-28T18:54:55.490Z,50.50
2018-01-28T18:57:23.401Z,54.77
2018-01-28T18:59:51.327Z,51.50
2018-01-28T19:02:19.183Z,56.50
2018-01-28T19:04:47.289Z,56.00
2018-01-28T19:07:15.138Z,53.83
2018-01-28T19:09:42.994Z,53.97
2018-01-28T19:12:12.251Z,55.53
2018-01-28T19:14:40.153Z,53.80
2018-01-28T19:17:08.067Z,60.23
2018-01-28T19:19:36.077Z,57.53
2018-01-28T19:22:04.682Z,60.53
2018-01-28T19:24:34.711Z,53.17
2018-01-28T19:27:03.133Z,53.00
2018-01-28T19:29:33.028Z,54.23
2018-01-28T19:32:01.811Z,55.53
2018-01-28T19:34:31.164Z,50.30
2018-01-28T19:37:00.784Z,49.03
2018-01-28T19:39:29.165Z,55.00
2018-01-28T19:41:57.090Z,70.50
2018-01-28T19:44:27.346Z,70.10
2018-01-28T19:46:56.727Z,70.27
2018-01-28T19:49:25.463Z,71.20
2018-01-28T19:51:54.704Z,67.87
2018-01-28T19:54:23.644Z,57.70
2018-01-28T19:56:51.575Z,64.07
2018-01-28T19:59:20.605Z,55.60
2018-01-28T20:01:48.790Z,57.03
2018-01-28T20:04:16.736Z,55.07
2018-01-28T20:06:45.180Z,64.77
2018-01-28T20:09:13.055Z,76.83
2018-01-28T20:11:40.969Z,72.47
2018-01-28T20:14:08.860Z,59.77
2018-01-28T20:16:36.734Z,57.90
2018-01-28T20:19:04.711Z,60.00
2018-01-28T20:21:32.591Z,57.83
2018-01-28T20:24:00.450Z,58.37
2018-01-28T20:26:28.368Z,59.43
2018-01-28T20:28:56.267Z,62.63
2018-01-28T20:31:24.123Z,61.90
2018-01-28T20:33:52.905Z,73.03
2018-01-28T20:36:20.794Z,63.83
2018-01-28T20:38:49.678Z,62.73
2018-01-28T20:41:17.614Z,63.70
2018-01-28T20:43:45.464Z,66.13
2018-01-28T20:46:13.444Z,60.23
2018-01-28T20:48:41.510Z,61.90
2018-01-28T20:51:09.347Z,60.07
2018-01-28T20:53:37.211Z,62.03
2018-01-28T20:56:05.147Z,60.97
2018-01-28T20:58:33.063Z,57.57
2018-01-28T21:01:00.963Z,64.40
2018-01-28T21:03:28.871Z,62.43
2018-01-28T21:05:56.730Z,62.33
2018-01-28T21:08:24.582Z,69.07
2018-01-28T21:10:52.566Z,73.73
2018-01-28T21:13:20.467Z,70.87
2018-01-28T21:15:48.319Z,72.97
2018-01-28T21:18:16.214Z,68.97
2018-01-28T21:20:44.168Z,69.80
2018-01-28T21:23:12.041Z,67.83
2018-01-28T21:25:39.954Z,63.87
2018-01-28T21:28:07.797Z,64.67
2018-01-28T21:30:35.656Z,62.43
2018-01-28T21:33:05.598Z,67.77
2018-01-28T21:35:33.453Z,66.70
2018-01-28T21:38:01.304Z,68.60
2018-01-28T21:40:29.417Z,66.43
2018-01-28T21:42:57.263Z,76.57
2018-01-28T21:45:25.123Z,68.37
2018-01-28T21:47:53.066Z,66.57
2018-01-28T21:50:21.051Z,68.97
2018-01-28T21:52:49.203Z,65.57
2018-01-28T21:55:17.139Z,64.60
2018-01-28T21:57:44.996Z,69.23
2018-01-28T22:00:12.863Z,71.07
2018-01-28T22:02:40.769Z,59.83
2018-01-28T22:05:08.635Z,58.80
2018-01-28T22:07:37.180Z,64.87
2018-01-28T22:10:05.365Z,61.17
2018-01-28T22:12:33.211Z,54.17
2018-01-28T22:15:01.061Z,49.90
2018-01-28T22:17:29.024Z,55.03
2018-01-28T22:19:56.907Z,53.57
2018-01-28T22:22:24.753Z,55.60
2018-01-28T22:24:52.678Z,56.70
2018-01-28T22:27:20.551Z,54.37
2018-01-28T22:29:48.414Z,53.43
2018-01-28T22:32:16.352Z,62.93
2018-01-28T22:34:44.231Z,68.17
2018-01-28T22:37:12.085Z,79.77
2018-01-28T22:39:39.995Z,84.53
2018-01-28T22:42:07.866Z,80.40
2018-01-28T22:44:35.730Z,82.37
2018-01-28T22:47:03.634Z,66.17
2018-01-28T22:49:31.479Z,59.57
2018-01-28T22:51:59.390Z,61.97
2018-01-28T22:54:27.328Z,56.83
2018-01-28T22:56:55.198Z,62.70
2018-01-28T22:59:23.038Z,54.40
2018-01-28T23:01:51.364Z,54.53
2018-01-28T23:04:19.206Z,55.10
2018-01-28T23:06:47.056Z,53.17
2018-01-28T23:09:14.960Z,52.73
2018-01-28T23:11:42.821Z,51.90
2018-01-28T23:14:10.671Z,50.20
2018-01-28T23:16:38.619Z,53.63
2018-01-28T23:19:06.454Z,55.33
2018-01-28T23:21:34.308Z,53.93
2018-01-28T23:24:02.230Z,55.37
2018-01-28T23:26:30.100Z,55.67
2018-01-28T23:28:57.950Z,53.63
2018-01-28T23:31:25.892Z,58.17
2018-01-28T23:33:53.744Z,60.63
2018-01-28T23:36:21.591Z,57.90
2018-01-28T23:38:49.704Z,62.40
2018-01-28T23:41:17.547Z,59.83
2018-01-28T23:43:45.397Z,58.13
2018-01-28T23:46:13.873Z,56.40
2018-01-28T23:48:41.724Z,58.53
2018-01-28T23:51:10.311Z,57.00
2018-01-28T23:53:38.378Z,63.07
2018-01-28T23:56:06.237Z,57.13
2018-01-28T23:58:34.111Z,53.10
